createdAt,value
2018-06-15T00:00:30.011Z,0.95
2018-06-15T00:01:29.998Z,1.05
2018-06-15T00:02:29.984Z,1.15
2018-06-15T00:03:29.977Z,1.53
2018-06-15T00:04:29.973Z,0.19
2018-06-15T00:05:29.966Z,0.57
2018-06-15T00:06:30.720Z,0.38
2018-06-15T00:07:29.959Z,1.53
2018-06-15T00:08:29.952Z,0.57
2018-06-15T00:09:29.947Z,1.15
2018-06-15T00:10:29.940Z,1.25
2018-06-15T00:11:29.945Z,1.05
2018-06-15T00:12:29.927Z,1.24
2018-06-15T00:13:29.917Z,1.82
2018-06-15T00:14:29.914Z,1.91
2018-06-15T00:15:29.921Z,1.62
2018-06-15T00:16:29.905Z,1.53
2018-06-15T00:17:29.898Z,0.67
2018-06-15T00:18:29.891Z,0.86
2018-06-15T00:19:29.884Z,0.00
2018-06-15T00:20:29.884Z,0.67
2018-06-15T00:21:29.873Z,1.15
2018-06-15T00:22:29.874Z,1.62
2018-06-15T00:23:29.880Z,1.05
2018-06-15T00:24:29.859Z,0.67
2018-06-15T00:25:29.854Z,2.01
2018-06-15T00:26:29.851Z,2.01
2018-06-15T00:27:29.836Z,1.15
2018-06-15T00:28:29.835Z,1.53
2018-06-15T00:29:29.826Z,1.34
2018-06-15T00:30:29.824Z,1.24
2018-06-15T00:31:29.817Z,1.53
2018-06-15T00:32:29.809Z,0.19
2018-06-15T00:33:29.802Z,1.43
2018-06-15T00:34:29.797Z,1.82
2018-06-15T00:35:29.792Z,1.24
2018-06-15T00:36:29.786Z,2.11
2018-06-15T00:37:29.781Z,2.11
2018-06-15T00:38:29.783Z,1.34
2018-06-15T00:39:29.776Z,0.48
2018-06-15T00:40:29.775Z,2.20
2018-06-15T00:41:29.757Z,2.87
2018-06-15T00:42:29.757Z,3.35
2018-06-15T00:43:29.744Z,2.87
2018-06-15T00:44:29.743Z,3.25
2018-06-15T00:45:29.731Z,2.11
2018-06-15T00:46:29.732Z,2.11
2018-06-15T00:47:29.727Z,3.06
2018-06-15T00:48:29.715Z,2.11
2018-06-15T00:49:29.708Z,3.06
2018-06-15T00:50:29.705Z,3.54
2018-06-15T00:51:29.704Z,2.87
2018-06-15T00:52:29.701Z,2.77
2018-06-15T00:53:29.693Z,3.06
2018-06-15T00:54:29.684Z,3.16
2018-06-15T00:55:29.703Z,2.97
2018-06-15T00:56:29.696Z,3.54
2018-06-15T00:57:29.667Z,3.44
2018-06-15T00:58:29.663Z,3.64
2018-06-15T00:59:29.660Z,3.54
2018-06-15T01:00:29.650Z,3.92
2018-06-15T01:01:29.651Z,2.77
2018-06-15T01:02:29.642Z,3.06
2018-06-15T01:03:29.642Z,3.64
2018-06-15T01:04:29.631Z,0.95
2018-06-15T01:05:29.621Z,1.43
2018-06-15T01:06:29.614Z,2.68
2018-06-15T01:07:29.610Z,2.97
2018-06-15T01:08:29.602Z,2.20
2018-06-15T01:09:29.594Z,2.01
2018-06-15T01:10:29.591Z,2.39
2018-06-15T01:11:29.586Z,3.06
2018-06-15T01:12:29.581Z,2.87
2018-06-15T01:13:29.616Z,2.48
2018-06-15T01:14:29.577Z,2.11
2018-06-15T01:15:29.572Z,2.58
2018-06-15T01:16:29.566Z,1.72
2018-06-15T01:17:29.550Z,3.35
2018-06-15T01:18:29.550Z,2.39
2018-06-15T01:19:29.542Z,3.06
2018-06-15T01:20:29.534Z,3.06
2018-06-15T01:21:29.529Z,2.97
2018-06-15T01:22:29.518Z,2.87
2018-06-15T01:23:29.514Z,3.44
2018-06-15T01:24:29.517Z,3.92
2018-06-15T01:25:29.503Z,3.35
2018-06-15T01:26:29.500Z,4.40
2018-06-15T01:27:29.497Z,4.30
2018-06-15T01:28:29.488Z,4.40
2018-06-15T01:29:29.483Z,4.30
2018-06-15T01:30:29.472Z,4.50
2018-06-15T01:31:29.467Z,4.30
2018-06-15T01:32:29.482Z,4.11
2018-06-15T01:33:29.462Z,4.11
2018-06-15T01:34:29.454Z,4.30
2018-06-15T01:35:29.451Z,4.21
2018-06-15T01:36:29.447Z,3.73
2018-06-15T01:37:29.431Z,4.50
2018-06-15T01:38:29.428Z,4.40
2018-06-15T01:39:30.258Z,3.06
2018-06-15T01:40:29.419Z,3.73
2018-06-15T01:41:29.408Z,4.69
2018-06-15T01:42:29.406Z,4.30
2018-06-15T01:43:29.403Z,4.11
2018-06-15T01:44:29.394Z,4.21
2018-06-15T01:45:29.384Z,4.21
2018-06-15T01:46:29.380Z,4.88
2018-06-15T01:47:29.377Z,4.30
2018-06-15T01:48:29.370Z,1.82
2018-06-15T01:49:29.363Z,2.97
2018-06-15T01:50:29.357Z,3.16
2018-06-15T01:51:29.347Z,4.02
2018-06-15T01:52:29.345Z,3.92
2018-06-15T01:53:29.338Z,1.15
2018-06-15T01:54:29.339Z,2.20
2018-06-15T01:55:29.329Z,2.48
2018-06-15T01:56:29.317Z,3.73
2018-06-15T01:57:29.311Z,3.16
2018-06-15T01:58:29.305Z,2.48
2018-06-15T01:59:29.308Z,3.25
2018-06-15T02:00:29.297Z,3.34
2018-06-15T02:01:29.395Z,3.25
2018-06-15T02:02:29.283Z,4.02
2018-06-15T02:03:29.280Z,2.87
2018-06-15T02:04:29.267Z,2.10
2018-06-15T02:05:29.265Z,2.39
2018-06-15T02:06:29.258Z,2.48
2018-06-15T02:07:29.255Z,2.48
2018-06-15T02:08:29.249Z,1.15
2018-06-15T02:09:29.244Z,0.48
2018-06-15T02:10:29.260Z,1.15
2018-06-15T02:11:29.228Z,0.95
2018-06-15T02:12:29.225Z,0.00
2018-06-15T02:13:29.270Z,0.09
2018-06-15T02:14:29.230Z,0.19
2018-06-15T02:15:29.202Z,0.00
2018-06-15T02:16:29.201Z,0.09
2018-06-15T02:17:29.189Z,0.19
2018-06-15T02:18:29.185Z,0.00
2018-06-15T02:19:29.176Z,0.00
2018-06-15T02:20:29.170Z,0.00
2018-06-15T02:21:29.174Z,0.00
2018-06-15T02:22:29.160Z,0.00
2018-06-15T02:23:29.153Z,0.00
2018-06-15T02:24:29.145Z,0.00
2018-06-15T02:25:29.144Z,0.00
2018-06-15T02:26:29.135Z,0.00
2018-06-15T02:27:29.135Z,0.00
2018-06-15T02:28:29.124Z,0.00
2018-06-15T02:29:29.120Z,0.00
2018-06-15T02:30:29.110Z,0.00
2018-06-15T02:31:29.104Z,0.00
2018-06-15T02:32:29.098Z,0.00
2018-06-15T02:33:29.088Z,0.00
2018-06-15T02:34:29.083Z,0.00
2018-06-15T02:35:29.077Z,0.00
2018-06-15T02:36:29.072Z,0.00
2018-06-15T02:37:29.075Z,0.00
2018-06-15T02:38:29.056Z,0.00
2018-06-15T02:39:29.054Z,0.00
2018-06-15T02:40:29.042Z,0.00
2018-06-15T02:41:29.040Z,0.00
2018-06-15T02:42:29.039Z,0.00
2018-06-15T02:43:29.028Z,0.00
2018-06-15T02:44:29.028Z,0.00
2018-06-15T02:45:29.038Z,0.00
2018-06-15T02:46:29.007Z,0.00
2018-06-15T02:47:29.000Z,0.00
2018-06-15T02:48:28.993Z,0.00
2018-06-15T02:49:29.009Z,0.00
2018-06-15T02:50:28.983Z,0.00
2018-06-15T02:51:28.976Z,0.00
2018-06-15T02:52:28.970Z,0.00
2018-06-15T02:53:28.974Z,0.00
2018-06-15T02:54:28.953Z,0.00
2018-06-15T02:55:28.954Z,0.00
2018-06-15T02:56:28.943Z,0.00
2018-06-15T02:57:28.948Z,0.00
2018-06-15T02:58:28.931Z,0.00
2018-06-15T02:59:28.925Z,0.00
2018-06-15T03:00:28.915Z,0.00
2018-06-15T03:01:28.915Z,0.00
2018-06-15T03:02:28.916Z,0.00
2018-06-15T03:03:28.894Z,0.00
2018-06-15T03:04:28.894Z,0.00
2018-06-15T03:05:28.889Z,0.00
2018-06-15T03:06:28.886Z,0.00
2018-06-15T03:07:28.904Z,0.00
2018-06-15T03:08:28.863Z,0.00
2018-06-15T03:09:28.859Z,0.00
2018-06-15T03:10:28.851Z,0.00
2018-06-15T03:11:28.847Z,0.00
2018-06-15T03:12:29.791Z,0.00
2018-06-15T03:13:28.832Z,0.00
2018-06-15T03:14:28.832Z,0.00
2018-06-15T03:15:28.822Z,0.00
2018-06-15T03:16:28.812Z,0.00
2018-06-15T03:17:28.807Z,0.00
2018-06-15T03:18:28.799Z,0.00
2018-06-15T03:19:28.794Z,0.00
2018-06-15T03:20:28.789Z,0.00
2018-06-15T03:21:28.780Z,0.00
2018-06-15T03:22:28.772Z,0.00
2018-06-15T03:23:28.766Z,0.00
2018-06-15T03:24:28.764Z,0.00
2018-06-15T03:25:28.755Z,0.00
2018-06-15T03:26:28.748Z,0.00
2018-06-15T03:27:28.744Z,0.00
2018-06-15T03:28:28.740Z,0.00
2018-06-15T03:29:28.734Z,0.00
2018-06-15T03:30:28.730Z,0.00
2018-06-15T03:31:28.742Z,0.00
2018-06-15T03:32:28.718Z,0.00
2018-06-15T03:33:28.703Z,0.00
2018-06-15T03:34:28.700Z,0.00
2018-06-15T03:35:28.695Z,0.00
2018-06-15T03:36:28.690Z,0.00
2018-06-15T03:37:28.680Z,0.00
2018-06-15T03:38:28.677Z,0.00
2018-06-15T03:39:28.668Z,0.00
2018-06-15T03:40:28.663Z,0.00
2018-06-15T03:41:28.658Z,0.00
2018-06-15T03:42:28.648Z,0.00
2018-06-15T03:43:28.644Z,0.00
2018-06-15T03:44:28.642Z,0.00
2018-06-15T03:45:28.631Z,0.00
2018-06-15T03:46:28.629Z,0.00
2018-06-15T03:47:28.624Z,0.00
2018-06-15T03:48:28.616Z,0.00
2018-06-15T03:49:28.610Z,0.00
2018-06-15T03:50:28.601Z,0.00
2018-06-15T03:51:28.596Z,0.00
2018-06-15T03:52:28.593Z,0.00
2018-06-15T03:53:28.589Z,0.00
2018-06-15T03:54:28.584Z,0.00
2018-06-15T03:55:28.575Z,0.00
2018-06-15T03:56:28.567Z,0.00
2018-06-15T03:57:28.559Z,0.00
2018-06-15T03:58:28.553Z,0.00
2018-06-15T03:59:28.565Z,0.00
2018-06-15T04:00:28.542Z,0.00
2018-06-15T04:01:28.538Z,0.00
2018-06-15T04:02:28.533Z,0.00
2018-06-15T04:03:28.526Z,0.00
2018-06-15T04:04:28.523Z,0.00
2018-06-15T04:05:28.517Z,0.00
2018-06-15T04:06:28.510Z,0.00
2018-06-15T04:07:28.502Z,0.00
2018-06-15T04:08:28.503Z,0.00
2018-06-15T04:09:28.489Z,0.00
2018-06-15T04:10:28.482Z,0.00
2018-06-15T04:11:28.481Z,0.00
2018-06-15T04:12:28.481Z,0.00
2018-06-15T04:13:28.475Z,0.00
2018-06-15T04:14:28.467Z,0.00
2018-06-15T04:15:28.466Z,0.00
2018-06-15T04:16:28.448Z,0.00
2018-06-15T04:17:28.444Z,0.00
2018-06-15T04:18:28.439Z,0.00
2018-06-15T04:19:28.433Z,0.00
2018-06-15T04:20:28.428Z,0.00
2018-06-15T04:21:28.420Z,0.00
2018-06-15T04:22:28.415Z,0.00
2018-06-15T04:23:28.407Z,0.00
2018-06-15T04:24:28.400Z,0.00
2018-06-15T04:25:28.396Z,0.00
2018-06-15T04:26:28.393Z,0.00
2018-06-15T04:27:28.386Z,0.00
2018-06-15T04:28:28.379Z,0.00
2018-06-15T04:29:28.372Z,0.00
2018-06-15T04:30:28.370Z,0.00
2018-06-15T04:31:28.360Z,0.00
2018-06-15T04:32:28.352Z,0.19
2018-06-15T04:33:28.350Z,0.67
2018-06-15T04:34:28.348Z,0.38
2018-06-15T04:35:28.340Z,0.00
2018-06-15T04:36:28.333Z,0.48
2018-06-15T04:37:28.327Z,1.72
2018-06-15T04:38:28.322Z,2.01
2018-06-15T04:39:28.315Z,2.11
2018-06-15T04:40:28.312Z,1.72
2018-06-15T04:41:28.307Z,0.95
2018-06-15T04:42:28.301Z,1.43
2018-06-15T04:43:28.295Z,0.00
2018-06-15T04:44:28.285Z,0.38
2018-06-15T04:45:28.283Z,1.15
2018-06-15T04:46:28.279Z,1.62
2018-06-15T04:47:28.269Z,2.48
2018-06-15T04:48:28.264Z,2.39
2018-06-15T04:49:28.260Z,3.44
2018-06-15T04:50:28.256Z,1.72
2018-06-15T04:51:28.249Z,3.25
2018-06-15T04:52:28.241Z,4.11
2018-06-15T04:53:28.240Z,4.30
2018-06-15T04:54:28.233Z,4.88
2018-06-15T04:55:28.225Z,4.40
2018-06-15T04:56:28.218Z,3.92
2018-06-15T04:57:28.215Z,4.11
2018-06-15T04:58:28.208Z,4.40
2018-06-15T04:59:28.200Z,4.21
2018-06-15T05:00:28.199Z,3.73
2018-06-15T05:01:28.208Z,5.36
2018-06-15T05:02:28.188Z,5.74
2018-06-15T05:03:28.186Z,6.03
2018-06-15T05:04:28.174Z,8.23
2018-06-15T05:05:28.170Z,8.23
2018-06-15T05:06:28.162Z,5.17
2018-06-15T05:07:28.185Z,5.74
2018-06-15T05:08:28.176Z,7.56
2018-06-15T05:09:28.154Z,8.33
2018-06-15T05:10:28.144Z,7.37
2018-06-15T05:11:28.153Z,4.40
2018-06-15T05:12:28.132Z,8.81
2018-06-15T05:13:28.129Z,7.95
2018-06-15T05:14:28.120Z,5.07
2018-06-15T05:15:28.115Z,6.51
2018-06-15T05:16:28.113Z,7.37
2018-06-15T05:17:28.117Z,7.66
2018-06-15T05:18:28.100Z,7.86
2018-06-15T05:19:28.094Z,8.52
2018-06-15T05:20:28.090Z,9.77
2018-06-15T05:21:28.091Z,10.35
2018-06-15T05:22:28.083Z,10.72
2018-06-15T05:23:28.078Z,10.92
2018-06-15T05:24:28.072Z,11.49
2018-06-15T05:25:28.068Z,11.49
2018-06-15T05:26:28.068Z,8.91
2018-06-15T05:27:28.059Z,10.63
2018-06-15T05:28:28.069Z,12.16
2018-06-15T05:29:28.058Z,13.98
2018-06-15T05:30:28.039Z,13.98
2018-06-15T05:31:28.037Z,20.40
2018-06-15T05:32:28.847Z,20.59
2018-06-15T05:33:28.029Z,19.92
2018-06-15T05:34:28.018Z,19.64
2018-06-15T05:35:28.015Z,20.02
2018-06-15T05:36:28.015Z,17.05
2018-06-15T05:37:28.006Z,18.96
2018-06-15T05:38:27.999Z,15.52
2018-06-15T05:39:28.036Z,12.74
2018-06-15T05:40:27.988Z,15.33
2018-06-15T05:41:27.983Z,16.48
2018-06-15T05:42:28.004Z,15.91
2018-06-15T05:43:27.975Z,16.10
2018-06-15T05:44:27.972Z,17.44
2018-06-15T05:45:27.964Z,18.02
2018-06-15T05:46:27.960Z,19.45
2018-06-15T05:47:27.959Z,19.93
2018-06-15T05:48:27.992Z,16.86
2018-06-15T05:49:27.944Z,17.92
2018-06-15T05:50:27.941Z,15.91
2018-06-15T05:51:27.938Z,19.17
2018-06-15T05:52:27.932Z,25.59
2018-06-15T05:53:27.927Z,26.45
2018-06-15T05:54:27.920Z,25.87
2018-06-15T05:55:27.937Z,16.48
2018-06-15T05:56:27.911Z,13.13
2018-06-15T05:57:27.910Z,17.63
2018-06-15T05:58:27.902Z,18.11
2018-06-15T05:59:27.901Z,19.07
2018-06-15T06:00:27.937Z,22.24
2018-06-15T06:01:27.891Z,24.15
2018-06-15T06:02:27.886Z,21.08
2018-06-15T06:03:27.880Z,16.10
2018-06-15T06:04:27.885Z,24.44
2018-06-15T06:05:27.874Z,25.59
2018-06-15T06:06:27.863Z,26.74
2018-06-15T06:07:27.858Z,25.97
2018-06-15T06:08:27.862Z,15.81
2018-06-15T06:09:27.856Z,22.71
2018-06-15T06:10:27.849Z,24.05
2018-06-15T06:11:27.888Z,27.03
2018-06-15T06:12:27.866Z,28.75
2018-06-15T06:13:27.830Z,21.75
2018-06-15T06:14:27.829Z,23.28
2018-06-15T06:15:27.824Z,24.73
2018-06-15T06:16:27.820Z,25.59
2018-06-15T06:17:27.824Z,26.83
2018-06-15T06:18:27.924Z,23.77
2018-06-15T06:19:27.888Z,24.05
2018-06-15T06:20:27.806Z,27.50
2018-06-15T06:21:27.810Z,30.19
2018-06-15T06:22:27.916Z,32.49
2018-06-15T06:23:27.815Z,32.87
2018-06-15T06:24:27.857Z,30.49
2018-06-15T06:25:27.779Z,33.84
2018-06-15T06:26:27.822Z,33.37
2018-06-15T06:27:27.775Z,34.90
2018-06-15T06:28:27.774Z,36.34
2018-06-15T06:29:27.796Z,36.34
2018-06-15T06:30:27.775Z,37.87
2018-06-15T06:31:27.751Z,37.49
2018-06-15T06:32:27.793Z,30.78
2018-06-15T06:33:27.745Z,24.46
2018-06-15T06:34:27.746Z,20.72
2018-06-15T06:35:27.740Z,18.51
2018-06-15T06:36:27.737Z,22.54
2018-06-15T06:37:27.729Z,27.53
2018-06-15T06:38:27.740Z,25.04
2018-06-15T06:39:27.720Z,20.43
2018-06-15T06:40:27.718Z,29.06
2018-06-15T06:41:27.714Z,40.10
2018-06-15T06:42:27.709Z,37.91
2018-06-15T06:43:27.707Z,39.45
2018-06-15T06:44:27.708Z,39.83
2018-06-15T06:45:27.702Z,41.49
2018-06-15T06:46:27.755Z,35.24
2018-06-15T06:47:27.700Z,40.14
2018-06-15T06:48:27.693Z,50.80
2018-06-15T06:49:27.685Z,53.49
2018-06-15T06:50:27.718Z,58.20
2018-06-15T06:51:27.686Z,58.20
2018-06-15T06:52:27.683Z,61.46
2018-06-15T06:53:27.681Z,48.49
2018-06-15T06:54:27.679Z,43.52
2018-06-15T06:55:27.678Z,40.45
2018-06-15T06:56:27.675Z,59.66
2018-06-15T06:57:27.665Z,44.31
2018-06-15T06:58:27.726Z,60.56
2018-06-15T06:59:27.667Z,64.40
2018-06-15T07:00:27.662Z,66.74
2018-06-15T07:01:27.659Z,57.32
2018-06-15T07:02:27.657Z,89.64
2018-06-15T07:03:27.654Z,67.90
2018-06-15T07:04:27.651Z,65.88
2018-06-15T07:05:27.655Z,64.53
2018-06-15T07:06:27.649Z,68.29
2018-06-15T07:07:27.650Z,71.84
2018-06-15T07:08:27.657Z,80.98
2018-06-15T07:09:27.647Z,71.36
2018-06-15T07:10:27.646Z,77.51
2018-06-15T07:11:27.646Z,75.49
2018-06-15T07:12:27.644Z,85.74
2018-06-15T07:13:27.643Z,75.98
2018-06-15T07:14:27.641Z,81.65
2018-06-15T07:15:27.639Z,83.29
2018-06-15T07:16:27.646Z,78.38
2018-06-15T07:17:27.637Z,90.02
2018-06-15T07:18:27.635Z,82.14
2018-06-15T07:19:27.638Z,79.73
2018-06-15T07:20:27.634Z,73.19
2018-06-15T07:21:27.633Z,72.96
2018-06-15T07:22:27.630Z,74.50
2018-06-15T07:23:27.624Z,59.89
2018-06-15T07:24:27.620Z,63.64
2018-06-15T07:25:27.623Z,79.30
2018-06-15T07:26:27.621Z,86.22
2018-06-15T07:27:27.624Z,92.38
2018-06-15T07:28:27.622Z,87.09
2018-06-15T07:29:27.624Z,79.88
2018-06-15T07:30:27.616Z,78.92
2018-06-15T07:31:27.617Z,72.77
2018-06-15T07:32:27.616Z,62.77
2018-06-15T07:33:27.620Z,66.71
2018-06-15T07:34:27.616Z,71.81
2018-06-15T07:35:27.602Z,86.80
2018-06-15T07:36:27.600Z,68.25
2018-06-15T07:37:27.599Z,90.45
2018-06-15T07:38:27.597Z,74.11
2018-06-15T07:39:27.592Z,68.31
2018-06-15T07:40:27.590Z,75.46
2018-06-15T07:41:27.591Z,83.15
2018-06-15T07:42:27.593Z,83.63
2018-06-15T07:43:27.598Z,86.13
2018-06-15T07:44:27.583Z,67.19
2018-06-15T07:45:27.583Z,60.97
2018-06-15T07:46:27.576Z,83.86
2018-06-15T07:47:27.577Z,86.79
2018-06-15T07:48:27.579Z,83.28
2018-06-15T07:49:27.570Z,94.06
2018-06-15T07:50:27.575Z,93.48
2018-06-15T07:51:27.568Z,99.99
2018-06-15T07:52:27.624Z,95.84
2018-06-15T07:53:27.571Z,96.03
2018-06-15T07:54:27.565Z,89.01
2018-06-15T07:55:27.567Z,87.95
2018-06-15T07:56:27.566Z,86.79
2018-06-15T07:57:27.566Z,95.94
2018-06-15T07:58:27.561Z,98.68
2018-06-15T07:59:27.629Z,92.43
2018-06-15T08:00:27.556Z,92.13
2018-06-15T08:01:27.551Z,88.87
2018-06-15T08:02:27.552Z,87.33
2018-06-15T08:03:27.554Z,87.42
2018-06-15T08:04:27.551Z,90.07
2018-06-15T08:05:27.549Z,66.81
2018-06-15T08:06:27.546Z,82.96
2018-06-15T08:07:27.544Z,76.14
2018-06-15T08:08:27.542Z,91.99
2018-06-15T08:09:27.541Z,78.06
2018-06-15T08:10:27.540Z,69.15
2018-06-15T08:11:27.533Z,81.56
2018-06-15T08:12:27.534Z,93.96
2018-06-15T08:13:27.526Z,92.91
2018-06-15T08:14:27.526Z,76.75
2018-06-15T08:15:27.525Z,93.48
2018-06-15T08:16:27.532Z,90.69
2018-06-15T08:17:28.436Z,84.59
2018-06-15T08:18:27.522Z,80.50
2018-06-15T08:19:27.514Z,85.50
2018-06-15T08:20:27.512Z,76.07
2018-06-15T08:21:27.509Z,78.28
2018-06-15T08:22:27.505Z,86.02
2018-06-15T08:23:27.513Z,96.03
2018-06-15T08:24:27.512Z,95.98
2018-06-15T08:25:27.504Z,93.29
2018-06-15T08:26:27.497Z,96.89
2018-06-15T08:27:27.501Z,94.78
2018-06-15T08:28:27.495Z,99.99
2018-06-15T08:29:27.496Z,99.99
2018-06-15T08:30:27.496Z,99.99
2018-06-15T08:31:27.493Z,99.99
2018-06-15T08:32:27.489Z,88.47
2018-06-15T08:33:27.485Z,90.97
2018-06-15T08:34:27.490Z,90.92
2018-06-15T08:35:27.483Z,98.39
2018-06-15T08:36:27.502Z,96.89
2018-06-15T08:37:27.487Z,99.99
2018-06-15T08:38:27.485Z,93.66
2018-06-15T08:39:27.483Z,99.99
2018-06-15T08:40:27.485Z,99.99
2018-06-15T08:41:27.480Z,97.47
2018-06-15T08:42:27.481Z,99.99
2018-06-15T08:43:27.485Z,99.99
2018-06-15T08:44:27.490Z,99.99
2018-06-15T08:45:27.493Z,99.99
2018-06-15T08:46:27.487Z,99.99
2018-06-15T08:47:27.486Z,99.99
2018-06-15T08:48:27.488Z,99.99
2018-06-15T08:49:27.490Z,98.68
2018-06-15T08:50:27.495Z,99.99
2018-06-15T08:51:27.496Z,96.08
2018-06-15T08:52:27.494Z,99.99
2018-06-15T08:53:27.494Z,99.99
2018-06-15T08:54:27.496Z,99.99
2018-06-15T08:55:27.497Z,97.47
2018-06-15T08:56:27.497Z,97.77
2018-06-15T08:57:27.497Z,99.65
2018-06-15T08:58:27.504Z,97.67
2018-06-15T08:59:27.504Z,96.80
2018-06-15T09:00:27.505Z,94.29
2018-06-15T09:01:27.521Z,88.59
2018-06-15T09:02:27.505Z,97.38
2018-06-15T09:03:27.504Z,89.95
2018-06-15T09:04:27.509Z,96.03
2018-06-15T09:05:27.513Z,98.39
2018-06-15T09:06:27.511Z,98.58
2018-06-15T09:07:27.513Z,98.39
2018-06-15T09:08:27.508Z,98.87
2018-06-15T09:09:27.513Z,98.39
2018-06-15T09:10:27.512Z,99.26
2018-06-15T09:11:27.517Z,94.78
2018-06-15T09:12:27.517Z,94.48
2018-06-15T09:13:27.516Z,99.02
2018-06-15T09:14:27.517Z,96.46
2018-06-15T09:15:27.516Z,99.16
2018-06-15T09:16:27.514Z,96.61
2018-06-15T09:17:27.514Z,98.73
2018-06-15T09:18:27.516Z,94.20
2018-06-15T09:19:27.518Z,97.57
2018-06-15T09:20:27.524Z,99.99
2018-06-15T09:21:27.519Z,98.49
2018-06-15T09:22:27.516Z,88.73
2018-06-15T09:23:27.522Z,89.55
2018-06-15T09:24:27.521Z,93.75
2018-06-15T09:25:27.521Z,86.31
2018-06-15T09:26:27.528Z,78.96
2018-06-15T09:27:27.525Z,80.57
2018-06-15T09:28:27.530Z,76.90
2018-06-15T09:29:27.526Z,85.21
2018-06-15T09:30:27.524Z,86.94
2018-06-15T09:31:27.530Z,87.23
2018-06-15T09:32:27.525Z,80.47
2018-06-15T09:33:27.532Z,95.88
2018-06-15T09:34:27.542Z,90.28
2018-06-15T09:35:27.535Z,81.11
2018-06-15T09:36:27.534Z,91.05
2018-06-15T09:37:27.531Z,95.98
2018-06-15T09:38:27.540Z,96.56
2018-06-15T09:39:27.540Z,96.46
2018-06-15T09:40:27.541Z,92.50
2018-06-15T09:41:27.540Z,84.20
2018-06-15T09:42:27.543Z,91.87
2018-06-15T09:43:27.542Z,92.07
2018-06-15T09:44:27.544Z,90.56
2018-06-15T09:45:27.543Z,85.15
2018-06-15T09:46:27.552Z,89.50
2018-06-15T09:47:27.552Z,90.12
2018-06-15T09:48:27.550Z,81.23
2018-06-15T09:49:27.551Z,77.69
2018-06-15T09:50:27.551Z,77.50
2018-06-15T09:51:27.553Z,79.14
2018-06-15T09:52:27.554Z,79.43
2018-06-15T09:53:27.558Z,83.40
2018-06-15T09:54:27.561Z,82.00
2018-06-15T09:55:27.562Z,74.55
2018-06-15T09:56:27.562Z,74.17
2018-06-15T09:57:27.567Z,72.52
2018-06-15T09:58:27.570Z,85.73
2018-06-15T09:59:27.573Z,90.47
2018-06-15T10:00:27.573Z,93.75
2018-06-15T10:01:27.575Z,77.67
2018-06-15T10:02:27.574Z,96.03
2018-06-15T10:03:27.574Z,79.22
2018-06-15T10:04:27.582Z,90.37
2018-06-15T10:05:27.573Z,95.54
2018-06-15T10:06:27.572Z,90.42
2018-06-15T10:07:27.585Z,92.93
2018-06-15T10:08:27.581Z,84.00
2018-06-15T10:09:27.583Z,84.20
2018-06-15T10:10:27.583Z,81.78
2018-06-15T10:11:27.582Z,82.65
2018-06-15T10:12:27.584Z,80.62
2018-06-15T10:13:27.585Z,81.78
2018-06-15T10:14:27.590Z,81.93
2018-06-15T10:15:27.587Z,92.31
2018-06-15T10:16:27.590Z,81.93
2018-06-15T10:17:27.583Z,92.60
2018-06-15T10:18:27.588Z,83.81
2018-06-15T10:19:27.587Z,77.15
2018-06-15T10:20:27.602Z,79.72
2018-06-15T10:21:27.587Z,77.98
2018-06-15T10:22:27.593Z,78.94
2018-06-15T10:23:27.599Z,81.16
2018-06-15T10:24:27.586Z,84.25
2018-06-15T10:25:27.585Z,90.05
2018-06-15T10:26:27.589Z,89.17
2018-06-15T10:27:27.588Z,94.04
2018-06-15T10:28:27.587Z,83.37
2018-06-15T10:29:27.590Z,96.84
2018-06-15T10:30:27.592Z,84.42
2018-06-15T10:31:27.588Z,91.62
2018-06-15T10:32:27.592Z,81.65
2018-06-15T10:33:27.593Z,70.18
2018-06-15T10:34:27.602Z,71.37
2018-06-15T10:35:27.605Z,67.98
2018-06-15T10:36:27.610Z,67.69
2018-06-15T10:37:27.605Z,67.72
2018-06-15T10:38:27.615Z,69.02
2018-06-15T10:39:27.651Z,66.50
2018-06-15T10:40:27.623Z,62.04
2018-06-15T10:41:27.631Z,62.88
2018-06-15T10:42:27.633Z,61.82
2018-06-15T10:43:27.636Z,62.37
2018-06-15T10:44:27.641Z,63.62
2018-06-15T10:45:27.643Z,74.51
2018-06-15T10:46:27.647Z,63.85
2018-06-15T10:47:27.658Z,67.14
2018-06-15T10:48:27.662Z,64.95
2018-06-15T10:49:27.667Z,62.23
2018-06-15T10:50:27.672Z,56.32
2018-06-15T10:51:27.678Z,58.65
2018-06-15T10:52:27.685Z,58.52
2018-06-15T10:53:27.685Z,59.88
2018-06-15T10:54:27.692Z,61.62
2018-06-15T10:55:27.698Z,60.75
2018-06-15T10:56:27.706Z,62.40
2018-06-15T10:57:27.708Z,63.95
2018-06-15T10:58:27.713Z,59.61
2018-06-15T10:59:27.716Z,61.65
2018-06-15T11:00:27.730Z,61.19
2018-06-15T11:01:27.734Z,61.52
2018-06-15T11:02:27.752Z,56.86
2018-06-15T11:03:27.745Z,55.79
2018-06-15T11:04:27.752Z,58.61
2018-06-15T11:05:27.753Z,58.25
2018-06-15T11:06:27.759Z,54.75
2018-06-15T11:07:27.764Z,55.79
2018-06-15T11:08:27.772Z,60.25
2018-06-15T11:09:27.780Z,66.86
2018-06-15T11:10:27.789Z,55.79
2018-06-15T11:11:27.789Z,56.18
2018-06-15T11:12:27.798Z,52.95
2018-06-15T11:13:27.804Z,62.52
2018-06-15T11:14:27.850Z,59.13
2018-06-15T11:15:27.814Z,57.68
2018-06-15T11:16:27.819Z,56.41
2018-06-15T11:17:27.826Z,58.19
2018-06-15T11:18:27.825Z,60.42
2018-06-15T11:19:27.830Z,59.42
2018-06-15T11:20:27.840Z,58.26
2018-06-15T11:21:27.840Z,55.49
2018-06-15T11:22:27.848Z,58.20
2018-06-15T11:23:27.854Z,61.79
2018-06-15T11:24:27.857Z,60.98
2018-06-15T11:25:27.857Z,58.27
2018-06-15T11:26:27.860Z,59.53
2018-06-15T11:27:27.864Z,63.21
2018-06-15T11:28:27.871Z,65.24
2018-06-15T11:29:27.877Z,60.88
2018-06-15T11:30:27.881Z,64.89
2018-06-15T11:31:27.885Z,61.21
2018-06-15T11:32:27.891Z,65.69
2018-06-15T11:33:27.889Z,66.02
2018-06-15T11:34:27.892Z,60.49
2018-06-15T11:35:27.922Z,63.72
2018-06-15T11:36:27.904Z,68.41
2018-06-15T11:37:27.912Z,65.33
2018-06-15T11:38:27.916Z,57.79
2018-06-15T11:39:27.916Z,57.33
2018-06-15T11:40:27.923Z,56.20
2018-06-15T11:41:27.930Z,61.77
2018-06-15T11:42:27.940Z,53.40
2018-06-15T11:43:27.944Z,58.07
2018-06-15T11:44:27.951Z,54.38
2018-06-15T11:45:27.959Z,53.72
2018-06-15T11:46:27.979Z,53.14
2018-06-15T11:47:27.967Z,53.14
2018-06-15T11:48:27.973Z,52.65
2018-06-15T11:49:27.982Z,55.64
2018-06-15T11:50:27.989Z,52.06
2018-06-15T11:51:27.996Z,53.42
2018-06-15T11:52:28.000Z,55.18
2018-06-15T11:53:28.004Z,51.77
2018-06-15T11:54:28.016Z,55.64
2018-06-15T11:55:28.018Z,53.81
2018-06-15T11:56:28.030Z,55.11
2018-06-15T11:57:28.054Z,53.87
2018-06-15T11:58:28.113Z,54.48
2018-06-15T11:59:28.050Z,51.75
2018-06-15T12:00:28.052Z,47.34
2018-06-15T12:01:28.106Z,45.84
2018-06-15T12:02:28.068Z,49.12
2018-06-15T12:03:28.081Z,51.94
2018-06-15T12:04:28.089Z,50.87
2018-06-15T12:05:28.095Z,55.41
2018-06-15T12:06:28.102Z,49.78
2018-06-15T12:07:28.108Z,51.70
2018-06-15T12:08:28.112Z,53.83
2018-06-15T12:09:28.121Z,54.54
2018-06-15T12:10:28.128Z,53.67
2018-06-15T12:11:28.135Z,49.41
2018-06-15T12:12:28.174Z,50.87
2018-06-15T12:13:28.148Z,51.17
2018-06-15T12:14:28.152Z,45.37
2018-06-15T12:15:28.178Z,43.91
2018-06-15T12:16:28.171Z,42.94
2018-06-15T12:17:28.174Z,44.48
2018-06-15T12:18:28.182Z,46.03
2018-06-15T12:19:28.188Z,46.11
2018-06-15T12:20:28.200Z,44.16
2018-06-15T12:21:28.202Z,44.53
2018-06-15T12:22:28.213Z,47.27
2018-06-15T12:23:28.224Z,46.20
2018-06-15T12:24:28.229Z,49.44
2018-06-15T12:25:28.236Z,43.87
2018-06-15T12:26:28.241Z,45.64
2018-06-15T12:27:28.245Z,46.69
2018-06-15T12:28:28.261Z,47.30
2018-06-15T12:29:28.259Z,45.95
2018-06-15T12:30:28.268Z,45.51
2018-06-15T12:31:28.278Z,43.85
2018-06-15T12:32:28.281Z,48.14
2018-06-15T12:33:28.293Z,45.49
2018-06-15T12:34:28.299Z,48.02
2018-06-15T12:35:28.307Z,48.51
2018-06-15T12:36:28.313Z,44.90
2018-06-15T12:37:28.325Z,49.00
2018-06-15T12:38:28.332Z,45.88
2018-06-15T12:39:28.341Z,47.95
2018-06-15T12:40:28.353Z,46.97
2018-06-15T12:41:28.350Z,42.98
2018-06-15T12:42:28.362Z,48.12
2018-06-15T12:43:28.369Z,43.93
2018-06-15T12:44:28.378Z,44.69
2018-06-15T12:45:28.385Z,46.81
2018-06-15T12:46:28.392Z,48.27
2018-06-15T12:47:28.398Z,44.38
2018-06-15T12:48:28.405Z,44.18
2018-06-15T12:49:28.409Z,43.07
2018-06-15T12:50:28.420Z,46.35
2018-06-15T12:51:28.431Z,48.30
2018-06-15T12:52:28.444Z,48.85
2018-06-15T12:53:28.439Z,49.54
2018-06-15T12:54:28.453Z,44.95
2018-06-15T12:55:28.444Z,44.56
2018-06-15T12:56:28.452Z,51.55
2018-06-15T12:57:28.458Z,51.09
2018-06-15T12:58:28.468Z,45.94
2018-06-15T12:59:28.472Z,45.24
2018-06-15T13:00:28.479Z,50.96
2018-06-15T13:01:28.487Z,51.45
2018-06-15T13:02:28.489Z,50.21
2018-06-15T13:03:28.492Z,49.44